createdAt,value
2019-02-14T00:02:23.966Z,89.94
2019-02-14T00:05:30.373Z,89.72
2019-02-14T00:08:36.935Z,89.33
2019-02-14T00:11:43.220Z,89.20
2019-02-14T00:14:49.904Z,89.05
2019-02-14T00:17:57.359Z,88.81
2019-02-14T00:21:03.943Z,89.23
2019-02-14T00:24:11.112Z,89.82
2019-02-14T00:27:17.811Z,89.58
2019-02-14T00:30:24.830Z,89.39
2019-02-14T00:33:31.253Z,89.78
2019-02-14T00:36:38.396Z,90.04
2019-02-14T00:39:44.687Z,90.15
2019-02-14T00:42:51.462Z,90.50
2019-02-14T00:45:57.920Z,90.44
2019-02-14T00:49:04.509Z,89.75
2019-02-14T00:52:12.610Z,89.20
2019-02-14T00:55:19.362Z,89.49
2019-02-14T00:58:25.952Z,89.30
2019-02-14T01:01:34.115Z,89.40
2019-02-14T01:04:40.741Z,89.61
2019-02-14T01:07:47.213Z,89.76
2019-02-14T01:10:54.275Z,89.19
2019-02-14T01:14:01.207Z,89.13
2019-02-14T01:17:08.275Z,89.76
2019-02-14T01:20:14.990Z,88.93
2019-02-14T01:23:21.607Z,89.32
2019-02-14T01:26:28.138Z,89.35
2019-02-14T01:29:34.549Z,88.99
2019-02-14T01:32:40.904Z,88.74
2019-02-14T01:35:47.282Z,89.48
2019-02-14T01:38:53.913Z,89.75
2019-02-14T01:42:00.606Z,89.65
2019-02-14T01:45:08.020Z,89.47
2019-02-14T01:48:15.181Z,89.25
2019-02-14T01:51:21.670Z,89.15
2019-02-14T01:54:28.363Z,89.35
2019-02-14T01:57:35.101Z,89.48
2019-02-14T02:00:41.744Z,89.42
2019-02-14T02:03:48.340Z,89.47
2019-02-14T02:06:54.625Z,89.91
2019-02-14T02:10:01.386Z,90.15
2019-02-14T02:13:10.731Z,90.00
2019-02-14T02:16:17.284Z,90.44
2019-02-14T02:19:24.029Z,90.17
2019-02-14T02:22:30.673Z,89.91
2019-02-14T02:25:37.486Z,89.81
2019-02-14T02:28:43.950Z,90.27
2019-02-14T02:31:51.339Z,90.40
2019-02-14T02:34:57.847Z,90.21
2019-02-14T02:38:04.579Z,89.90
2019-02-14T02:41:11.161Z,89.62
2019-02-14T02:44:17.411Z,90.40
2019-02-14T02:47:23.974Z,90.56
2019-02-14T02:50:30.716Z,90.52
2019-02-14T02:53:36.952Z,89.73
2019-02-14T02:56:43.216Z,89.07
2019-02-14T02:59:49.834Z,89.71
2019-02-14T03:02:56.503Z,89.92
2019-02-14T03:06:10.263Z,89.84
2019-02-14T03:09:11.460Z,89.67
2019-02-14T03:12:18.298Z,89.25
2019-02-14T03:15:27.098Z,89.11
2019-02-14T03:18:33.594Z,89.16
2019-02-14T03:21:40.136Z,89.67
2019-02-14T03:24:46.940Z,89.88
2019-02-14T03:27:53.322Z,89.81
2019-02-14T03:30:59.673Z,89.67
2019-02-14T03:34:06.091Z,89.51
2019-02-14T03:37:12.706Z,89.62
2019-02-14T03:40:18.916Z,89.98
2019-02-14T03:43:25.593Z,90.14
2019-02-14T03:46:32.488Z,89.94
2019-02-14T03:49:39.477Z,89.64
2019-02-14T03:52:45.759Z,89.13
2019-02-14T03:55:52.077Z,89.39
2019-02-14T03:58:58.442Z,89.87
2019-02-14T04:02:04.727Z,89.81
2019-02-14T04:05:11.018Z,89.62
2019-02-14T04:08:17.287Z,89.82
2019-02-14T04:11:25.106Z,90.18
2019-02-14T04:14:32.253Z,89.89
2019-02-14T04:17:38.751Z,89.86
2019-02-14T04:20:45.282Z,89.78
2019-02-14T04:23:52.147Z,89.01
2019-02-14T04:26:58.578Z,89.16
2019-02-14T04:30:06.638Z,89.45
2019-02-14T04:33:13.236Z,89.57
2019-02-14T04:36:19.818Z,88.84
2019-02-14T04:39:26.598Z,88.46
2019-02-14T04:42:33.243Z,89.03
2019-02-14T04:45:39.984Z,89.12
2019-02-14T04:48:46.807Z,89.23
2019-02-14T04:51:53.666Z,89.56
2019-02-14T04:55:00.016Z,89.54
2019-02-14T04:58:06.678Z,89.47
2019-02-14T05:01:12.997Z,89.31
2019-02-14T05:04:19.702Z,89.36
2019-02-14T05:07:28.083Z,89.92
2019-02-14T05:10:34.676Z,89.58
2019-02-14T05:13:41.735Z,89.03
2019-02-14T05:16:48.392Z,88.94
2019-02-14T05:19:54.856Z,89.49
2019-02-14T05:23:01.562Z,89.40
2019-02-14T05:26:07.949Z,89.44
2019-02-14T05:29:14.935Z,89.21
2019-02-14T05:32:21.379Z,88.95
2019-02-14T05:35:28.100Z,88.70
2019-02-14T05:38:34.751Z,88.95
2019-02-14T05:41:41.548Z,89.62
2019-02-14T05:44:48.507Z,89.96
2019-02-14T05:47:54.751Z,90.24
2019-02-14T05:51:01.340Z,89.35
2019-02-14T05:54:07.983Z,88.82
2019-02-14T05:57:15.780Z,89.35
2019-02-14T06:00:22.391Z,90.20
2019-02-14T06:03:28.765Z,90.56
2019-02-14T06:06:35.886Z,90.40
2019-02-14T06:09:42.775Z,90.04
2019-02-14T06:12:49.723Z,89.54
2019-02-14T06:15:56.384Z,89.49
2019-02-14T06:19:02.854Z,90.02
2019-02-14T06:22:09.400Z,90.12
2019-02-14T06:25:15.874Z,90.40
2019-02-14T06:28:22.319Z,90.28
2019-02-14T06:31:28.983Z,90.35
2019-02-14T06:34:35.205Z,90.41
2019-02-14T06:37:41.731Z,89.88
2019-02-14T06:40:48.394Z,89.90
2019-02-14T06:43:54.740Z,89.68
2019-02-14T06:47:01.648Z,90.00
2019-02-14T06:50:08.640Z,90.49
2019-02-14T06:53:14.898Z,90.81
2019-02-14T06:56:21.417Z,90.78
2019-02-14T06:59:30.157Z,90.49
2019-02-14T07:02:37.477Z,90.06
2019-02-14T07:05:44.496Z,89.51
2019-02-14T07:08:58.097Z,89.76
2019-02-14T07:12:07.223Z,89.99
2019-02-14T07:15:14.722Z,90.25
2019-02-14T07:18:21.461Z,90.25
2019-02-14T07:21:28.464Z,89.93
2019-02-14T07:24:35.418Z,89.62
2019-02-14T07:27:42.614Z,89.79
2019-02-14T07:30:51.624Z,89.69
2019-02-14T07:33:58.299Z,89.94
2019-02-14T07:37:05.254Z,89.17
2019-02-14T07:40:13.039Z,89.26
2019-02-14T07:43:21.039Z,89.46
2019-02-14T07:46:27.816Z,89.28
2019-02-14T07:49:34.296Z,88.93
2019-02-14T07:52:40.955Z,89.04
2019-02-14T07:55:47.491Z,89.09
2019-02-14T07:58:54.073Z,89.02
2019-02-14T08:02:01.749Z,88.42
2019-02-14T08:05:07.902Z,87.62
2019-02-14T08:08:14.210Z,87.32
2019-02-14T08:11:20.902Z,86.74
2019-02-14T08:14:27.394Z,85.78
2019-02-14T08:17:34.057Z,84.93
2019-02-14T08:20:40.686Z,84.48
2019-02-14T08:23:47.358Z,84.93
2019-02-14T08:26:53.820Z,84.44
2019-02-14T08:30:00.581Z,84.29
2019-02-14T08:33:07.259Z,83.98
2019-02-14T08:36:13.731Z,83.70
2019-02-14T08:39:20.424Z,83.67
2019-02-14T08:42:26.781Z,83.90
2019-02-14T08:45:33.691Z,83.25
2019-02-14T08:48:41.792Z,83.29
2019-02-14T08:51:48.638Z,83.47
2019-02-14T08:54:59.695Z,83.31
2019-02-14T08:58:06.159Z,83.32
2019-02-14T09:01:13.088Z,83.40
2019-02-14T09:04:19.687Z,82.90
2019-02-14T09:07:26.441Z,81.98
2019-02-14T09:10:33.130Z,79.69
2019-02-14T09:13:39.990Z,79.29
2019-02-14T09:16:46.751Z,79.44
2019-02-14T09:19:53.453Z,80.22
2019-02-14T09:23:00.069Z,79.49
2019-02-14T09:26:06.743Z,79.16
2019-02-14T09:29:14.382Z,77.76
2019-02-14T09:32:26.122Z,76.33
2019-02-14T09:35:32.769Z,73.52
2019-02-14T09:38:40.721Z,73.43
2019-02-14T09:41:47.698Z,69.62
2019-02-14T09:44:54.655Z,70.06
2019-02-14T09:48:01.355Z,68.92
2019-02-14T09:51:08.571Z,69.92
2019-02-14T09:54:15.199Z,70.55
2019-02-14T09:57:21.584Z,66.38
2019-02-14T10:00:28.378Z,66.11
2019-02-14T10:03:35.090Z,66.28
2019-02-14T10:06:41.517Z,66.10
2019-02-14T10:09:48.080Z,62.80
2019-02-14T10:12:55.858Z,62.79
2019-02-14T10:16:02.475Z,63.42
2019-02-14T10:19:09.185Z,65.21
2019-02-14T10:22:16.498Z,65.91
2019-02-14T10:25:23.609Z,65.12
2019-02-14T10:28:31.145Z,66.28
2019-02-14T10:31:38.638Z,65.13
2019-02-14T10:34:45.215Z,64.37
2019-02-14T10:37:52.076Z,62.38
2019-02-14T10:40:58.456Z,54.48
2019-02-14T10:44:05.257Z,60.07
2019-02-14T10:47:11.983Z,63.05
2019-02-14T10:50:18.683Z,64.01
2019-02-14T10:53:35.229Z,64.95
2019-02-14T10:56:42.797Z,62.68
2019-02-14T10:59:50.305Z,60.92
2019-02-14T11:03:01.556Z,59.01
2019-02-14T11:06:09.923Z,55.55
2019-02-14T11:09:17.717Z,52.64
2019-02-14T11:12:25.462Z,52.02
2019-02-14T11:15:32.056Z,50.28
2019-02-14T11:18:44.243Z,50.87
2019-02-14T11:21:47.148Z,50.37
2019-02-14T11:24:55.358Z,51.63
2019-02-14T11:28:02.111Z,51.80
2019-02-14T11:31:09.589Z,53.16
2019-02-14T11:34:16.255Z,53.84
2019-02-14T11:37:22.800Z,56.62
2019-02-14T11:40:29.696Z,56.68
2019-02-14T11:43:36.353Z,57.03
2019-02-14T11:46:51.297Z,63.17
2019-02-14T11:49:51.009Z,58.71
2019-02-14T11:52:57.512Z,59.57
2019-02-14T11:56:04.092Z,63.15
2019-02-14T11:59:10.753Z,63.67
2019-02-14T12:02:17.219Z,63.95
2019-02-14T12:05:23.505Z,63.60
2019-02-14T12:08:30.030Z,59.76
2019-02-14T12:11:38.874Z,59.55
2019-02-14T12:14:45.427Z,56.56
2019-02-14T12:17:52.500Z,52.40
2019-02-14T12:20:58.806Z,50.92
2019-02-14T12:24:05.758Z,51.45
2019-02-14T12:27:12.641Z,50.07
2019-02-14T12:30:19.072Z,51.79
2019-02-14T12:33:25.670Z,48.89
2019-02-14T12:36:32.453Z,49.59
2019-02-14T12:39:39.806Z,46.64
2019-02-14T12:42:46.696Z,51.28
2019-02-14T12:45:53.057Z,50.64
2019-02-14T12:48:59.955Z,49.99
2019-02-14T12:52:06.841Z,50.03
2019-02-14T12:55:13.212Z,49.72
2019-02-14T12:58:19.791Z,46.53
2019-02-14T13:01:26.391Z,47.28
2019-02-14T13:04:32.934Z,45.12
2019-02-14T13:07:39.962Z,45.89
2019-02-14T13:10:48.134Z,48.52
2019-02-14T13:13:56.053Z,43.79
2019-02-14T13:17:02.477Z,44.72
2019-02-14T13:20:09.691Z,46.39
2019-02-14T13:23:16.159Z,45.78
2019-02-14T13:26:23.848Z,42.78
2019-02-14T13:29:30.500Z,44.95
2019-02-14T13:32:37.614Z,46.36
2019-02-14T13:35:44.436Z,44.87
2019-02-14T13:38:51.218Z,44.25
2019-02-14T13:41:58.626Z,43.13
2019-02-14T13:45:06.141Z,44.15
2019-02-14T13:48:12.833Z,42.58
2019-02-14T13:51:20.272Z,44.88
2019-02-14T13:54:26.907Z,44.30
2019-02-14T13:57:33.672Z,43.87
2019-02-14T14:00:41.619Z,43.87
2019-02-14T14:03:47.798Z,43.96
2019-02-14T14:06:54.440Z,44.58
2019-02-14T14:10:00.845Z,46.10
2019-02-14T14:13:07.897Z,45.18
2019-02-14T14:16:14.477Z,44.66
2019-02-14T14:19:21.423Z,45.98
2019-02-14T14:22:28.167Z,44.94
2019-02-14T14:25:34.482Z,44.63
2019-02-14T14:28:41.094Z,44.41
2019-02-14T14:31:48.339Z,44.09
2019-02-14T14:34:54.941Z,45.32
2019-02-14T14:38:01.527Z,45.11
2019-02-14T14:41:08.223Z,45.10
2019-02-14T14:44:49.195Z,45.19
2019-02-14T14:47:55.653Z,45.43
2019-02-14T14:51:02.109Z,46.17
2019-02-14T14:54:08.923Z,46.72
2019-02-14T14:57:15.470Z,45.45
2019-02-14T15:00:22.501Z,46.50
2019-02-14T15:03:29.409Z,46.88
2019-02-14T15:06:36.994Z,46.62
2019-02-14T15:09:43.476Z,46.22
2019-02-14T15:12:53.132Z,47.23
2019-02-14T15:15:59.577Z,48.40
2019-02-14T15:19:06.360Z,51.63
2019-02-14T15:22:13.023Z,49.96
2019-02-14T15:25:19.817Z,51.70
2019-02-14T15:28:26.165Z,52.47
2019-02-14T15:31:33.092Z,53.37
2019-02-14T15:34:40.023Z,54.04
2019-02-14T15:37:47.243Z,55.37
2019-02-14T15:40:55.024Z,56.20
2019-02-14T15:44:03.554Z,57.87
2019-02-14T15:47:10.337Z,59.69
2019-02-14T15:50:17.210Z,60.50
2019-02-14T15:53:24.350Z,60.99
2019-02-14T15:56:31.602Z,63.01
2019-02-14T15:59:40.475Z,64.55
2019-02-14T16:02:47.961Z,65.65
2019-02-14T16:05:55.650Z,66.94
2019-02-14T16:09:06.110Z,67.81
2019-02-14T16:12:14.030Z,68.51
2019-02-14T16:15:20.739Z,70.33
2019-02-14T16:18:27.500Z,71.40
2019-02-14T16:21:35.088Z,71.87
2019-02-14T16:24:43.056Z,72.12
2019-02-14T16:27:50.462Z,72.36
2019-02-14T16:30:57.636Z,73.97
2019-02-14T16:34:05.290Z,74.10
2019-02-14T16:37:12.333Z,74.78
2019-02-14T16:40:27.422Z,75.62
2019-02-14T16:43:27.950Z,75.50
2019-02-14T16:46:34.906Z,75.68
2019-02-14T16:49:41.953Z,76.69
2019-02-14T16:52:48.647Z,76.23
2019-02-14T16:56:01.841Z,76.56
2019-02-14T16:59:04.885Z,77.80
2019-02-14T17:02:12.002Z,77.14
2019-02-14T17:05:18.480Z,77.29
2019-02-14T17:08:25.369Z,78.01
2019-02-14T17:11:32.387Z,78.42
2019-02-14T17:14:39.231Z,78.05
2019-02-14T17:17:45.650Z,78.58
2019-02-14T17:20:52.823Z,79.69
2019-02-14T17:24:00.532Z,79.95
2019-02-14T17:27:07.597Z,79.43
2019-02-14T17:30:15.089Z,80.73
2019-02-14T17:33:21.825Z,81.27
2019-02-14T17:36:28.277Z,80.67
2019-02-14T17:39:36.867Z,81.63
2019-02-14T17:42:43.681Z,82.65
2019-02-14T17:45:50.646Z,82.72
2019-02-14T17:48:57.454Z,82.24
2019-02-14T17:52:04.112Z,81.47
2019-02-14T17:55:12.450Z,82.06
2019-02-14T17:58:18.868Z,82.23
2019-02-14T18:01:27.280Z,82.91
2019-02-14T18:04:33.802Z,83.13
2019-02-14T18:07:41.317Z,83.69
2019-02-14T18:10:54.726Z,83.35
2019-02-14T18:13:56.576Z,83.46
2019-02-14T18:17:03.169Z,83.51
2019-02-14T18:20:10.666Z,83.47
2019-02-14T18:23:17.413Z,83.48
2019-02-14T18:26:24.216Z,84.02
2019-02-14T18:29:30.749Z,83.97
2019-02-14T18:32:37.196Z,83.87
2019-02-14T18:35:44.089Z,84.42
2019-02-14T18:38:50.800Z,85.09
2019-02-14T18:41:58.956Z,85.87
2019-02-14T18:45:07.779Z,85.07
2019-02-14T18:48:14.424Z,85.26
2019-02-14T18:51:21.935Z,85.81
2019-02-14T18:54:28.318Z,86.58
2019-02-14T18:57:35.563Z,86.05
2019-02-14T19:00:45.329Z,85.38
2019-02-14T19:03:52.462Z,85.33
2019-02-14T19:06:59.009Z,85.82
2019-02-14T19:10:05.497Z,86.48
2019-02-14T19:13:15.596Z,87.17
2019-02-14T19:16:22.316Z,87.35
2019-02-14T19:19:29.114Z,87.05
2019-02-14T19:22:36.306Z,86.84
2019-02-14T19:25:42.816Z,87.13
2019-02-14T19:28:49.847Z,86.41
2019-02-14T19:31:56.809Z,87.10
2019-02-14T19:35:04.157Z,86.71
2019-02-14T19:38:12.310Z,87.00
2019-02-14T19:41:25.336Z,87.50
2019-02-14T19:44:27.507Z,86.97
2019-02-14T19:47:36.814Z,87.16
2019-02-14T19:50:43.888Z,87.94
2019-02-14T19:53:50.176Z,88.24
2019-02-14T19:56:56.964Z,88.12
2019-02-14T20:00:04.495Z,88.15
2019-02-14T20:03:11.323Z,88.36
2019-02-14T20:06:18.232Z,88.49
2019-02-14T20:09:25.760Z,88.38
2019-02-14T20:12:33.001Z,87.96
2019-02-14T20:15:39.818Z,87.50
2019-02-14T20:18:46.979Z,87.49
2019-02-14T20:21:54.081Z,88.00
2019-02-14T20:25:00.988Z,88.27
2019-02-14T20:28:07.586Z,88.67
2019-02-14T20:31:15.908Z,88.16
2019-02-14T20:34:22.863Z,87.76
2019-02-14T20:37:31.606Z,87.42
2019-02-14T20:40:38.607Z,87.18
2019-02-14T20:43:47.367Z,87.22
2019-02-14T20:46:54.358Z,88.18
2019-02-14T20:50:02.383Z,88.60
2019-02-14T20:53:10.790Z,88.39
2019-02-14T20:56:17.832Z,88.42
2019-02-14T20:59:25.858Z,88.42
2019-02-14T21:02:33.504Z,87.84
2019-02-14T21:05:40.333Z,87.36
2019-02-14T21:08:47.377Z,86.99
2019-02-14T21:11:56.519Z,87.22
2019-02-14T21:15:04.420Z,87.57
2019-02-14T21:18:10.995Z,87.87
2019-02-14T21:21:18.082Z,88.59
2019-02-14T21:24:25.024Z,88.80
2019-02-14T21:27:35.224Z,89.07
2019-02-14T21:30:41.852Z,89.21
2019-02-14T21:33:48.818Z,89.18
2019-02-14T21:36:55.265Z,88.87
2019-02-14T21:40:01.974Z,88.37
2019-02-14T21:43:09.034Z,88.35
2019-02-14T21:46:16.062Z,88.43
2019-02-14T21:49:22.835Z,88.84
2019-02-14T21:52:29.865Z,89.03
2019-02-14T21:55:36.796Z,89.46
2019-02-14T21:58:44.064Z,89.63
2019-02-14T22:01:51.037Z,89.27
2019-02-14T22:04:57.603Z,88.87
2019-02-14T22:08:04.218Z,89.03
2019-02-14T22:11:11.641Z,88.92
2019-02-14T22:14:18.101Z,88.56
2019-02-14T22:17:25.151Z,88.22
2019-02-14T22:20:32.098Z,88.22
2019-02-14T22:23:38.897Z,88.65
2019-02-14T22:26:45.557Z,89.01
2019-02-14T22:29:52.396Z,89.51
2019-02-14T22:32:58.746Z,89.41
2019-02-14T22:36:05.678Z,89.22
2019-02-14T22:39:13.706Z,89.58
2019-02-14T22:42:20.886Z,89.74
2019-02-14T22:45:27.547Z,89.46
2019-02-14T22:48:34.605Z,89.24
2019-02-14T22:51:43.950Z,88.77
2019-02-14T22:54:50.802Z,88.33
2019-02-14T22:57:57.349Z,88.21
2019-02-14T23:01:04.358Z,88.31
2019-02-14T23:04:11.141Z,89.13
2019-02-14T23:07:17.580Z,88.45
2019-02-14T23:10:24.168Z,88.38
2019-02-14T23:13:31.171Z,88.91
2019-02-14T23:16:38.382Z,89.59
2019-02-14T23:19:46.877Z,90.07
2019-02-14T23:22:53.923Z,90.08
2019-02-14T23:26:00.736Z,89.55
2019-02-14T23:29:07.388Z,89.43
2019-02-14T23:32:13.924Z,89.23
2019-02-14T23:35:20.404Z,88.86
2019-02-14T23:38:26.919Z,88.71
2019-02-14T23:41:34.484Z,89.01
2019-02-14T23:44:41.290Z,88.88
2019-02-14T23:47:48.355Z,88.72
2019-02-14T23:50:55.730Z,88.61
2019-02-14T23:54:02.333Z,88.90
2019-02-14T23:57:09.002Z,88.91
